PWSweather.com
Personal Weather Stations
Station Observations
IROGLAN40
AalgaardNO 4330

AalgaardNO 4330

Lat: 58.773, Lon: 5.846

Elevation: 326

Station Type: Davis Vanatge Pro2

www.mavahome.com

High Low Average
Temperature 37.3°F2.9°C 28.3°F-2.1°C 32.3°F0.2°C
Dew Point 24.4°F-4.2°C 13.8°F-10.1°C 19.2°F-7.1°C
Winds 16.1 mph 25.9 kmh Calm Calm 6.0 mph SE9.7 kmh SE
Wind Gusts 31.1 mph50.1 kmh -- 10.0 mph16.1 kmh
Humidity 67% 53% 58%
Pressure 30.00 in1015.9 mb 29.88 in1011.9 mb -
Precipitation 0.00 in0.0 mm - -
Hour Temp Dew Point Humidity Winds Wind Gusts Pressure Precip Precip Rate Daily Precip Total
12:00 AM 32.1°F0.1°C 19.4°F-7.0°C 59% 1.2 mph ESE1.9 kmh ESE 3.5 mph5.6 kmh 29.92 in1013.2 mb - 0.00 in0.0 mm 0.00 in0.0 mm
12:10 AM 32.1°F0.1°C 19.4°F-7.0°C 59% 2.3 mph S3.7 kmh S 8.1 mph13.0 kmh 29.92 in1013.2 mb - 0.00 in0.0 mm 0.00 in0.0 mm
12:20 AM 32.3°F0.2°C 19.6°F-6.9°C 59% 3.5 mph SSW5.6 kmh SSW 5.8 mph9.3 kmh 29.92 in1013.2 mb - 0.00 in0.0 mm 0.00 in0.0 mm
12:30 AM 32.1°F0.1°C 19.8°F-6.8°C 60% 3.5 mph WNW5.6 kmh WNW 6.9 mph11.1 kmh 29.92 in1013.2 mb - 0.00 in0.0 mm 0.00 in0.0 mm
12:40 AM 31.8°F-0.1°C 19.9°F-6.7°C 61% 1.2 mph S1.9 kmh S 4.6 mph7.4 kmh 29.92 in1013.2 mb - 0.00 in0.0 mm 0.00 in0.0 mm
12:50 AM 31.8°F-0.1°C 20.3°F-6.5°C 62% 1.2 mph S1.9 kmh S 8.1 mph13.0 kmh 29.93 in1013.5 mb - 0.00 in0.0 mm 0.00 in0.0 mm
01:00 AM 31.8°F-0.1°C 20.3°F-6.5°C 62% 2.3 mph E3.7 kmh E 8.1 mph13.0 kmh 29.92 in1013.2 mb - 0.00 in0.0 mm 0.00 in0.0 mm
01:10 AM 31.7°F-0.2°C 20.2°F-6.6°C 62% 1.2 mph SE1.9 kmh SE 3.5 mph5.6 kmh 29.92 in1013.2 mb - 0.00 in0.0 mm 0.00 in0.0 mm
01:20 AM 31.6°F-0.2°C 20.5°F-6.4°C 63% 3.5 mph SE5.6 kmh SE 6.9 mph11.1 kmh 29.92 in1013.2 mb - 0.00 in0.0 mm 0.00 in0.0 mm
01:30 AM 31.7°F-0.2°C 20.1°F-6.6°C 62% 3.5 mph NW5.6 kmh NW 4.6 mph7.4 kmh 29.92 in1013.2 mb - 0.00 in0.0 mm 0.00 in0.0 mm
01:40 AM 30.8°F-0.7°C 20.1°F-6.6°C 64% 1.2 mph NE1.9 kmh NE -- 29.92 in1013.2 mb - 0.00 in0.0 mm 0.00 in0.0 mm
01:50 AM 30.8°F-0.7°C 20.4°F-6.4°C 65% Calm Calm -- 29.91 in1012.9 mb - 0.00 in0.0 mm 0.00 in0.0 mm
02:00 AM 30.8°F-0.7°C 20.4°F-6.4°C 65% Calm Calm -- 29.91 in1012.9 mb - 0.00 in0.0 mm 0.00 in0.0 mm
02:10 AM 31.0°F-0.6°C 20.2°F-6.6°C 64% Calm Calm -- 29.91 in1012.9 mb - 0.00 in0.0 mm 0.00 in0.0 mm
02:20 AM 30.9°F-0.6°C 19.8°F-6.8°C 63% Calm Calm -- 29.91 in1012.9 mb - 0.00 in0.0 mm 0.00 in0.0 mm
02:30 AM 30.6°F-0.8°C 19.5°F-6.9°C 63% Calm Calm -- 29.90 in1012.5 mb - 0.00 in0.0 mm 0.00 in0.0 mm
02:40 AM 30.6°F-0.8°C 19.5°F-6.9°C 63% Calm Calm -- 29.90 in1012.5 mb - 0.00 in0.0 mm 0.00 in0.0 mm
02:50 AM 30.6°F-0.8°C 19.5°F-6.9°C 63% Calm Calm -- 29.89 in1012.2 mb - 0.00 in0.0 mm 0.00 in0.0 mm
03:00 AM 30.9°F-0.6°C 19.4°F-7.0°C 62% Calm Calm -- 29.89 in1012.2 mb - 0.00 in0.0 mm 0.00 in0.0 mm
03:10 AM 30.9°F-0.6°C 19.4°F-7.0°C 62% Calm Calm -- 29.89 in1012.2 mb - 0.00 in0.0 mm 0.00 in0.0 mm
03:20 AM 31.2°F-0.4°C 19.3°F-7.1°C 61% Calm Calm -- 29.89 in1012.2 mb - 0.00 in0.0 mm 0.00 in0.0 mm
03:30 AM 30.8°F-0.7°C 19.3°F-7.1°C 62% Calm Calm -- 29.88 in1011.9 mb - 0.00 in0.0 mm 0.00 in0.0 mm
03:40 AM 30.9°F-0.6°C 19.0°F-7.2°C 61% Calm Calm -- 29.88 in1011.9 mb - 0.00 in0.0 mm 0.00 in0.0 mm
03:50 AM 30.9°F-0.6°C 18.6°F-7.4°C 60% Calm Calm -- 29.88 in1011.9 mb - 0.00 in0.0 mm 0.00 in0.0 mm
04:00 AM 30.8°F-0.7°C 18.5°F-7.5°C 60% Calm Calm -- 29.88 in1011.9 mb - 0.00 in0.0 mm 0.00 in0.0 mm
04:10 AM 31.0°F-0.6°C 18.3°F-7.6°C 59% Calm Calm -- 29.88 in1011.9 mb - 0.00 in0.0 mm 0.00 in0.0 mm
04:20 AM 30.9°F-0.6°C 18.6°F-7.4°C 60% Calm Calm -- 29.88 in1011.9 mb - 0.00 in0.0 mm 0.00 in0.0 mm
04:30 AM 31.1°F-0.5°C 18.4°F-7.6°C 59% Calm Calm -- 29.88 in1011.9 mb - 0.00 in0.0 mm 0.00 in0.0 mm
04:40 AM 31.2°F-0.4°C 18.5°F-7.5°C 59% Calm Calm -- 29.88 in1011.9 mb - 0.00 in0.0 mm 0.00 in0.0 mm
04:50 AM 31.0°F-0.6°C 18.7°F-7.4°C 60% Calm Calm -- 29.88 in1011.9 mb - 0.00 in0.0 mm 0.00 in0.0 mm
05:00 AM 31.3°F-0.4°C 18.6°F-7.4°C 59% Calm Calm -- 29.88 in1011.9 mb - 0.00 in0.0 mm 0.00 in0.0 mm
05:10 AM 31.2°F-0.4°C 18.6°F-7.4°C 59% Calm Calm -- 29.88 in1011.9 mb - 0.00 in0.0 mm 0.00 in0.0 mm
05:20 AM 31.3°F-0.4°C 18.2°F-7.7°C 58% Calm Calm -- 29.88 in1011.9 mb - 0.00 in0.0 mm 0.00 in0.0 mm
05:30 AM 31.2°F-0.4°C 17.7°F-7.9°C 57% Calm Calm -- 29.89 in1012.2 mb - 0.00 in0.0 mm 0.00 in0.0 mm
05:40 AM 31.1°F-0.5°C 17.6°F-8.0°C 57% Calm Calm -- 29.89 in1012.2 mb - 0.00 in0.0 mm 0.00 in0.0 mm
05:50 AM 31.0°F-0.6°C 17.5°F-8.1°C 57% Calm Calm -- 29.88 in1011.9 mb - 0.00 in0.0 mm 0.00 in0.0 mm
06:00 AM 31.2°F-0.4°C 17.3°F-8.2°C 56% Calm Calm -- 29.89 in1012.2 mb - 0.00 in0.0 mm 0.00 in0.0 mm
06:10 AM 31.4°F-0.3°C 16.7°F-8.5°C 54% Calm Calm -- 29.89 in1012.2 mb - 0.00 in0.0 mm 0.00 in0.0 mm
06:20 AM 31.1°F-0.5°C 17.2°F-8.2°C 56% Calm Calm -- 29.89 in1012.2 mb - 0.00 in0.0 mm 0.00 in0.0 mm
06:30 AM 31.2°F-0.4°C 16.9°F-8.4°C 55% Calm Calm -- 29.90 in1012.5 mb - 0.00 in0.0 mm 0.00 in0.0 mm
06:40 AM 31.0°F-0.6°C 16.7°F-8.5°C 55% Calm Calm -- 29.90 in1012.5 mb - 0.00 in0.0 mm 0.00 in0.0 mm
06:50 AM 30.9°F-0.6°C 16.6°F-8.6°C 55% Calm Calm -- 29.90 in1012.5 mb - 0.00 in0.0 mm 0.00 in0.0 mm
07:00 AM 30.6°F-0.8°C 16.7°F-8.5°C 56% Calm Calm -- 29.91 in1012.9 mb - 0.00 in0.0 mm 0.00 in0.0 mm
07:10 AM 30.2°F-1.0°C 17.5°F-8.1°C 59% Calm Calm -- 29.91 in1012.9 mb - 0.00 in0.0 mm 0.00 in0.0 mm
07:20 AM 29.8°F-1.2°C 17.9°F-7.8°C 61% Calm Calm -- 29.91 in1012.9 mb - 0.00 in0.0 mm 0.00 in0.0 mm
07:30 AM 29.4°F-1.4°C 18.3°F-7.6°C 63% Calm Calm -- 29.91 in1012.9 mb - 0.00 in0.0 mm 0.00 in0.0 mm
07:40 AM 29.1°F-1.6°C 18.4°F-7.6°C 64% Calm Calm -- 29.91 in1012.9 mb - 0.00 in0.0 mm 0.00 in0.0 mm
07:50 AM 29.1°F-1.6°C 18.8°F-7.3°C 65% Calm Calm -- 29.91 in1012.9 mb - 0.00 in0.0 mm 0.00 in0.0 mm
08:00 AM 29.2°F-1.6°C 19.6°F-6.9°C 67% Calm Calm -- 29.92 in1013.2 mb - 0.00 in0.0 mm 0.00 in0.0 mm
08:10 AM 31.1°F-0.5°C 20.7°F-6.3°C 65% 10.4 mph SE16.7 kmh SE 15.0 mph24.1 kmh 29.92 in1013.2 mb - 0.00 in0.0 mm 0.00 in0.0 mm
08:20 AM 31.3°F-0.4°C 21.2°F-6.0°C 66% 5.8 mph SE9.3 kmh SE 10.4 mph16.7 kmh 29.92 in1013.2 mb - 0.00 in0.0 mm 0.00 in0.0 mm
08:30 AM 31.5°F-0.3°C 21.4°F-5.9°C 66% 6.9 mph ESE11.1 kmh ESE 12.7 mph20.4 kmh 29.92 in1013.2 mb - 0.00 in0.0 mm 0.00 in0.0 mm
08:40 AM 31.7°F-0.2°C 21.6°F-5.8°C 66% 6.9 mph SE11.1 kmh SE 13.8 mph22.2 kmh 29.93 in1013.5 mb - 0.00 in0.0 mm 0.00 in0.0 mm
08:50 AM 32.1°F0.1°C 21.7°F-5.7°C 65% 6.9 mph SE11.1 kmh SE 11.5 mph18.5 kmh 29.92 in1013.2 mb - 0.00 in0.0 mm 0.00 in0.0 mm
09:00 AM 32.9°F0.5°C 22.0°F-5.6°C 64% 4.6 mph SE7.4 kmh SE 4.6 mph7.4 kmh 29.92 in1013.2 mb - 0.00 in0.0 mm 0.00 in0.0 mm
09:10 AM 33.4°F0.8°C 22.1°F-5.5°C 63% 9.2 mph SE14.8 kmh SE 15.0 mph24.1 kmh 29.92 in1013.2 mb - 0.00 in0.0 mm 0.00 in0.0 mm
09:20 AM 33.7°F0.9°C 22.1°F-5.5°C 62% 6.9 mph ESE11.1 kmh ESE 11.5 mph18.5 kmh 29.93 in1013.5 mb - 0.00 in0.0 mm 0.00 in0.0 mm
09:30 AM 34.4°F1.3°C 21.9°F-5.6°C 60% 10.4 mph ESE16.7 kmh ESE 13.8 mph22.2 kmh 29.92 in1013.2 mb - 0.00 in0.0 mm 0.00 in0.0 mm
09:40 AM 34.7°F1.5°C 21.8°F-5.7°C 59% 12.7 mph ESE20.4 kmh ESE 24.2 mph38.9 kmh 29.92 in1013.2 mb - 0.00 in0.0 mm 0.00 in0.0 mm
09:50 AM 34.8°F1.6°C 21.9°F-5.6°C 59% 11.5 mph SE18.5 kmh SE 17.3 mph27.8 kmh 29.92 in1013.2 mb - 0.00 in0.0 mm 0.00 in0.0 mm
10:00 AM 35.4°F1.9°C 22.1°F-5.5°C 58% 9.2 mph ESE14.8 kmh ESE 13.8 mph22.2 kmh 29.92 in1013.2 mb - 0.00 in0.0 mm 0.00 in0.0 mm
10:10 AM 35.7°F2.1°C 22.8°F-5.1°C 59% 11.5 mph SE18.5 kmh SE 18.4 mph29.6 kmh 29.92 in1013.2 mb - 0.00 in0.0 mm 0.00 in0.0 mm
10:20 AM 36.0°F2.2°C 23.5°F-4.7°C 60% 9.2 mph SE14.8 kmh SE 11.5 mph18.5 kmh 29.92 in1013.2 mb - 0.00 in0.0 mm 0.00 in0.0 mm
10:30 AM 36.4°F2.4°C 23.4°F-4.8°C 59% 10.4 mph SE16.7 kmh SE 16.1 mph25.9 kmh 29.92 in1013.2 mb - 0.00 in0.0 mm 0.00 in0.0 mm
10:40 AM 36.4°F2.4°C 23.4°F-4.8°C 59% 9.2 mph SE14.8 kmh SE 13.8 mph22.2 kmh 29.92 in1013.2 mb - 0.00 in0.0 mm 0.00 in0.0 mm
10:50 AM 36.3°F2.4°C 23.4°F-4.8°C 59% 11.5 mph SE18.5 kmh SE 17.3 mph27.8 kmh 29.92 in1013.2 mb - 0.00 in0.0 mm 0.00 in0.0 mm
11:00 AM 36.2°F2.3°C 23.6°F-4.7°C 60% 9.2 mph SE14.8 kmh SE 13.8 mph22.2 kmh 29.92 in1013.2 mb - 0.00 in0.0 mm 0.00 in0.0 mm
11:10 AM 36.6°F2.6°C 24.0°F-4.4°C 60% 9.2 mph SE14.8 kmh SE 13.8 mph22.2 kmh 29.92 in1013.2 mb - 0.00 in0.0 mm 0.00 in0.0 mm
11:20 AM 37.0°F2.8°C 24.0°F-4.4°C 59% 5.8 mph SE9.3 kmh SE 9.2 mph14.8 kmh 29.92 in1013.2 mb - 0.00 in0.0 mm 0.00 in0.0 mm
11:30 AM 36.9°F2.7°C 23.9°F-4.5°C 59% 8.1 mph SE13.0 kmh SE 18.4 mph29.6 kmh 29.93 in1013.5 mb - 0.00 in0.0 mm 0.00 in0.0 mm
11:40 AM 36.4°F2.4°C 23.4°F-4.8°C 59% 9.2 mph SE14.8 kmh SE 13.8 mph22.2 kmh 29.92 in1013.2 mb - 0.00 in0.0 mm 0.00 in0.0 mm
11:50 AM 36.4°F2.4°C 23.8°F-4.6°C 60% 9.2 mph SE14.8 kmh SE 12.7 mph20.4 kmh 29.92 in1013.2 mb - 0.00 in0.0 mm 0.00 in0.0 mm
12:00 PM 36.4°F2.4°C 23.4°F-4.8°C 59% 12.7 mph SE20.4 kmh SE 23.0 mph37.0 kmh 29.92 in1013.2 mb - 0.00 in0.0 mm 0.00 in0.0 mm
12:10 PM 37.0°F2.8°C 24.4°F-4.2°C 60% 10.4 mph SE16.7 kmh SE 17.3 mph27.8 kmh 29.92 in1013.2 mb - 0.00 in0.0 mm 0.00 in0.0 mm
12:20 PM 37.3°F2.9°C 23.9°F-4.5°C 58% 10.4 mph ESE16.7 kmh ESE 13.8 mph22.2 kmh 29.93 in1013.5 mb - 0.00 in0.0 mm 0.00 in0.0 mm
12:30 PM 37.0°F2.8°C 24.0°F-4.4°C 59% 8.1 mph SE13.0 kmh SE 17.3 mph27.8 kmh 29.92 in1013.2 mb - 0.00 in0.0 mm 0.00 in0.0 mm
12:40 PM 37.1°F2.8°C 24.1°F-4.4°C 59% 10.4 mph SE16.7 kmh SE 15.0 mph24.1 kmh 29.92 in1013.2 mb - 0.00 in0.0 mm 0.00 in0.0 mm
12:50 PM 36.6°F2.6°C 23.6°F-4.7°C 59% 12.7 mph SE20.4 kmh SE 16.1 mph25.9 kmh 29.92 in1013.2 mb - 0.00 in0.0 mm 0.00 in0.0 mm
01:00 PM 36.5°F2.5°C 23.6°F-4.7°C 59% 8.1 mph SE13.0 kmh SE 10.4 mph16.7 kmh 29.92 in1013.2 mb - 0.00 in0.0 mm 0.00 in0.0 mm
01:10 PM 36.4°F2.4°C 23.4°F-4.8°C 59% 10.4 mph SE16.7 kmh SE 25.3 mph40.7 kmh 29.92 in1013.2 mb - 0.00 in0.0 mm 0.00 in0.0 mm
01:20 PM 36.1°F2.3°C 23.1°F-4.9°C 59% 12.7 mph SE20.4 kmh SE 23.0 mph37.0 kmh 29.92 in1013.2 mb - 0.00 in0.0 mm 0.00 in0.0 mm
01:30 PM 35.9°F2.2°C 23.0°F-5.0°C 59% 11.5 mph SE18.5 kmh SE 16.1 mph25.9 kmh 29.92 in1013.2 mb - 0.00 in0.0 mm 0.00 in0.0 mm
01:40 PM 36.0°F2.2°C 22.6°F-5.2°C 58% 11.5 mph SE18.5 kmh SE 20.7 mph33.3 kmh 29.92 in1013.2 mb - 0.00 in0.0 mm 0.00 in0.0 mm
01:50 PM 35.8°F2.1°C 22.0°F-5.6°C 57% 13.8 mph ESE22.2 kmh ESE 24.2 mph38.9 kmh 29.92 in1013.2 mb - 0.00 in0.0 mm 0.00 in0.0 mm
02:00 PM 35.9°F2.2°C 22.5°F-5.3°C 58% 12.7 mph SE20.4 kmh SE 20.7 mph33.3 kmh 29.92 in1013.2 mb - 0.00 in0.0 mm 0.00 in0.0 mm
02:10 PM 35.9°F2.2°C 22.5°F-5.3°C 58% 12.7 mph SE20.4 kmh SE 18.4 mph29.6 kmh 29.92 in1013.2 mb - 0.00 in0.0 mm 0.00 in0.0 mm
02:20 PM 35.9°F2.2°C 22.5°F-5.3°C 58% 11.5 mph SE18.5 kmh SE 13.8 mph22.2 kmh 29.92 in1013.2 mb - 0.00 in0.0 mm 0.00 in0.0 mm
02:30 PM 35.8°F2.1°C 22.4°F-5.3°C 58% 9.2 mph SE14.8 kmh SE 13.8 mph22.2 kmh 29.91 in1012.9 mb - 0.00 in0.0 mm 0.00 in0.0 mm
02:40 PM 34.9°F1.6°C 21.6°F-5.8°C 58% 12.7 mph SE20.4 kmh SE 17.3 mph27.8 kmh 29.91 in1012.9 mb - 0.00 in0.0 mm 0.00 in0.0 mm
02:50 PM 34.6°F1.4°C 21.3°F-5.9°C 58% 16.1 mph SE25.9 kmh SE 31.1 mph50.1 kmh 29.92 in1013.2 mb - 0.00 in0.0 mm 0.00 in0.0 mm
03:00 PM 35.1°F1.7°C 21.4°F-5.9°C 57% 15.0 mph SE24.1 kmh SE 31.1 mph50.1 kmh 29.91 in1012.9 mb - 0.00 in0.0 mm 0.00 in0.0 mm
03:10 PM 34.7°F1.5°C 20.6°F-6.3°C 56% 16.1 mph SE25.9 kmh SE 19.6 mph31.5 kmh 29.92 in1013.2 mb - 0.00 in0.0 mm 0.00 in0.0 mm
03:20 PM 34.6°F1.4°C 20.5°F-6.4°C 56% 12.7 mph SE20.4 kmh SE 16.1 mph25.9 kmh 29.91 in1012.9 mb - 0.00 in0.0 mm 0.00 in0.0 mm
03:30 PM 34.9°F1.6°C 20.7°F-6.3°C 56% 9.2 mph SE14.8 kmh SE 19.6 mph31.5 kmh 29.92 in1013.2 mb - 0.00 in0.0 mm 0.00 in0.0 mm
03:40 PM 34.4°F1.3°C 20.7°F-6.3°C 57% 11.5 mph ESE18.5 kmh ESE 16.1 mph25.9 kmh 29.91 in1012.9 mb - 0.00 in0.0 mm 0.00 in0.0 mm
03:50 PM 34.2°F1.2°C 19.7°F-6.8°C 55% 10.4 mph SE16.7 kmh SE 17.3 mph27.8 kmh 29.91 in1012.9 mb - 0.00 in0.0 mm 0.00 in0.0 mm
04:00 PM 34.6°F1.4°C 19.7°F-6.8°C 54% 8.1 mph SE13.0 kmh SE 15.0 mph24.1 kmh 29.91 in1012.9 mb - 0.00 in0.0 mm 0.00 in0.0 mm
04:10 PM 34.5°F1.4°C 19.1°F-7.2°C 53% 11.5 mph SE18.5 kmh SE 17.3 mph27.8 kmh 29.90 in1012.5 mb - 0.00 in0.0 mm 0.00 in0.0 mm
04:20 PM 34.5°F1.4°C 19.1°F-7.2°C 53% 8.1 mph SE13.0 kmh SE 13.8 mph22.2 kmh 29.90 in1012.5 mb - 0.00 in0.0 mm 0.00 in0.0 mm
04:30 PM 34.4°F1.3°C 19.0°F-7.2°C 53% 9.2 mph SSE14.8 kmh SSE 12.7 mph20.4 kmh 29.90 in1012.5 mb - 0.00 in0.0 mm 0.00 in0.0 mm
04:40 PM 34.2°F1.2°C 18.8°F-7.3°C 53% 6.9 mph SE11.1 kmh SE 10.4 mph16.7 kmh 29.90 in1012.5 mb - 0.00 in0.0 mm 0.00 in0.0 mm
04:50 PM 34.0°F1.1°C 18.6°F-7.4°C 53% 9.2 mph SE14.8 kmh SE 10.4 mph16.7 kmh 29.90 in1012.5 mb - 0.00 in0.0 mm 0.00 in0.0 mm
05:00 PM 33.8°F1.0°C 18.4°F-7.6°C 53% 9.2 mph SE14.8 kmh SE 11.5 mph18.5 kmh 29.90 in1012.5 mb - 0.00 in0.0 mm 0.00 in0.0 mm
05:10 PM 33.5°F0.8°C 18.2°F-7.7°C 53% 5.8 mph SE9.3 kmh SE 16.1 mph25.9 kmh 29.90 in1012.5 mb - 0.00 in0.0 mm 0.00 in0.0 mm
05:20 PM 33.5°F0.8°C 18.6°F-7.4°C 54% 8.1 mph SE13.0 kmh SE 12.7 mph20.4 kmh 29.90 in1012.5 mb - 0.00 in0.0 mm 0.00 in0.0 mm
05:30 PM 33.3°F0.7°C 18.0°F-7.8°C 53% 10.4 mph SE16.7 kmh SE 18.4 mph29.6 kmh 29.90 in1012.5 mb - 0.00 in0.0 mm 0.00 in0.0 mm
05:40 PM 33.1°F0.6°C 18.2°F-7.7°C 54% 10.4 mph SE16.7 kmh SE 16.1 mph25.9 kmh 29.90 in1012.5 mb - 0.00 in0.0 mm 0.00 in0.0 mm
05:50 PM 32.9°F0.5°C 18.1°F-7.7°C 54% 8.1 mph SE13.0 kmh SE 19.6 mph31.5 kmh 29.90 in1012.5 mb - 0.00 in0.0 mm 0.00 in0.0 mm
06:00 PM 32.8°F0.4°C 17.9°F-7.8°C 54% 9.2 mph SE14.8 kmh SE 13.8 mph22.2 kmh 29.90 in1012.5 mb - 0.00 in0.0 mm 0.00 in0.0 mm
06:10 PM 32.6°F0.3°C 18.2°F-7.7°C 55% 8.1 mph SE13.0 kmh SE 16.1 mph25.9 kmh 29.90 in1012.5 mb - 0.00 in0.0 mm 0.00 in0.0 mm
06:20 PM 30.4°F-0.9°C 17.0°F-8.3°C 57% Calm Calm -- 29.90 in1012.5 mb - 0.00 in0.0 mm 0.00 in0.0 mm
06:30 PM 30.2°F-1.0°C 16.8°F-8.4°C 57% Calm Calm -- 29.91 in1012.9 mb - 0.00 in0.0 mm 0.00 in0.0 mm
06:40 PM 29.9°F-1.2°C 16.5°F-8.6°C 57% Calm Calm -- 29.91 in1012.9 mb - 0.00 in0.0 mm 0.00 in0.0 mm
06:50 PM 29.7°F-1.3°C 16.7°F-8.5°C 58% Calm Calm -- 29.91 in1012.9 mb - 0.00 in0.0 mm 0.00 in0.0 mm
07:00 PM 29.5°F-1.4°C 16.1°F-8.8°C 57% Calm Calm -- 29.91 in1012.9 mb - 0.00 in0.0 mm 0.00 in0.0 mm
07:10 PM 29.2°F-1.6°C 16.2°F-8.8°C 58% Calm Calm -- 29.92 in1013.2 mb - 0.00 in0.0 mm 0.00 in0.0 mm
07:20 PM 29.1°F-1.6°C 16.2°F-8.8°C 58% Calm Calm -- 29.92 in1013.2 mb - 0.00 in0.0 mm 0.00 in0.0 mm
07:30 PM 28.9°F-1.7°C 16.0°F-8.9°C 58% Calm Calm -- 29.92 in1013.2 mb - 0.00 in0.0 mm 0.00 in0.0 mm
07:40 PM 28.8°F-1.8°C 16.3°F-8.7°C 59% Calm Calm -- 29.92 in1013.2 mb - 0.00 in0.0 mm 0.00 in0.0 mm
07:50 PM 30.1°F-1.1°C 16.3°F-8.7°C 56% 5.8 mph SE9.3 kmh SE 11.5 mph18.5 kmh 29.93 in1013.5 mb - 0.00 in0.0 mm 0.00 in0.0 mm
08:00 PM 30.2°F-1.0°C 16.4°F-8.7°C 56% 4.6 mph NW7.4 kmh NW 13.8 mph22.2 kmh 29.93 in1013.5 mb - 0.00 in0.0 mm 0.00 in0.0 mm
08:10 PM 30.1°F-1.1°C 16.3°F-8.7°C 56% 4.6 mph WNW7.4 kmh WNW 10.4 mph16.7 kmh 29.93 in1013.5 mb - 0.00 in0.0 mm 0.00 in0.0 mm
08:20 PM 30.2°F-1.0°C 16.3°F-8.7°C 56% 8.1 mph W13.0 kmh W 16.1 mph25.9 kmh 29.94 in1013.9 mb - 0.00 in0.0 mm 0.00 in0.0 mm
08:30 PM 30.0°F-1.1°C 15.8°F-9.0°C 55% 9.2 mph WSW14.8 kmh WSW 12.7 mph20.4 kmh 29.95 in1014.2 mb - 0.00 in0.0 mm 0.00 in0.0 mm
08:40 PM 29.9°F-1.2°C 16.1°F-8.8°C 56% 4.6 mph SSW7.4 kmh SSW 8.1 mph13.0 kmh 29.95 in1014.2 mb - 0.00 in0.0 mm 0.00 in0.0 mm
08:50 PM 29.9°F-1.2°C 16.1°F-8.8°C 56% 4.6 mph W7.4 kmh W 8.1 mph13.0 kmh 29.95 in1014.2 mb - 0.00 in0.0 mm 0.00 in0.0 mm
09:00 PM 29.7°F-1.3°C 15.5°F-9.2°C 55% 2.3 mph SSE3.7 kmh SSE 8.1 mph13.0 kmh 29.96 in1014.6 mb - 0.00 in0.0 mm 0.00 in0.0 mm
09:10 PM 29.6°F-1.3°C 15.4°F-9.2°C 55% 3.5 mph SSW5.6 kmh SSW 16.1 mph25.9 kmh 29.97 in1014.9 mb - 0.00 in0.0 mm 0.00 in0.0 mm
09:20 PM 29.5°F-1.4°C 15.3°F-9.3°C 55% 4.6 mph SE7.4 kmh SE 11.5 mph18.5 kmh 29.97 in1014.9 mb - 0.00 in0.0 mm 0.00 in0.0 mm
09:30 PM 29.3°F-1.5°C 15.5°F-9.2°C 56% 5.8 mph NW9.3 kmh NW 11.5 mph18.5 kmh 29.98 in1015.2 mb - 0.00 in0.0 mm 0.00 in0.0 mm
09:40 PM 29.4°F-1.4°C 15.2°F-9.3°C 55% 10.4 mph N16.7 kmh N 17.3 mph27.8 kmh 29.98 in1015.2 mb - 0.00 in0.0 mm 0.00 in0.0 mm
09:50 PM 29.2°F-1.6°C 15.4°F-9.2°C 56% 5.8 mph WNW9.3 kmh WNW 8.1 mph13.0 kmh 29.98 in1015.2 mb - 0.00 in0.0 mm 0.00 in0.0 mm
10:00 PM 29.2°F-1.6°C 15.0°F-9.4°C 55% 6.9 mph SSE11.1 kmh SSE 18.4 mph29.6 kmh 29.98 in1015.2 mb - 0.00 in0.0 mm 0.00 in0.0 mm
10:10 PM 29.1°F-1.6°C 14.9°F-9.5°C 55% 8.1 mph W13.0 kmh W 11.5 mph18.5 kmh 29.99 in1015.6 mb - 0.00 in0.0 mm 0.00 in0.0 mm
10:20 PM 29.0°F-1.7°C 14.8°F-9.6°C 55% 5.8 mph N9.3 kmh N 11.5 mph18.5 kmh 29.99 in1015.6 mb - 0.00 in0.0 mm 0.00 in0.0 mm
10:30 PM 28.9°F-1.7°C 14.8°F-9.6°C 55% 9.2 mph NNW14.8 kmh NNW 12.7 mph20.4 kmh 30.00 in1015.9 mb - 0.00 in0.0 mm 0.00 in0.0 mm
10:40 PM 29.0°F-1.7°C 14.8°F-9.6°C 55% 10.4 mph N16.7 kmh N 17.3 mph27.8 kmh 30.00 in1015.9 mb - 0.00 in0.0 mm 0.00 in0.0 mm
10:50 PM 28.9°F-1.7°C 14.7°F-9.6°C 55% 6.9 mph NW11.1 kmh NW 9.2 mph14.8 kmh 30.00 in1015.9 mb - 0.00 in0.0 mm 0.00 in0.0 mm
11:00 PM 28.8°F-1.8°C 14.6°F-9.7°C 55% 9.2 mph NW14.8 kmh NW 18.4 mph29.6 kmh 30.00 in1015.9 mb - 0.00 in0.0 mm 0.00 in0.0 mm
11:10 PM 28.7°F-1.8°C 14.6°F-9.7°C 55% 9.2 mph WSW14.8 kmh WSW 21.9 mph35.2 kmh 29.99 in1015.6 mb - 0.00 in0.0 mm 0.00 in0.0 mm
11:20 PM 28.7°F-1.8°C 14.5°F-9.7°C 55% 10.4 mph WSW16.7 kmh WSW 23.0 mph37.0 kmh 29.99 in1015.6 mb - 0.00 in0.0 mm 0.00 in0.0 mm
11:30 PM 28.5°F-1.9°C 13.9°F-10.1°C 54% 12.7 mph W20.4 kmh W 19.6 mph31.5 kmh 29.99 in1015.6 mb - 0.00 in0.0 mm 0.00 in0.0 mm
11:40 PM 28.3°F-2.1°C 14.2°F-9.9°C 55% 13.8 mph WSW22.2 kmh WSW 26.5 mph42.6 kmh 29.99 in1015.6 mb - 0.00 in0.0 mm 0.00 in0.0 mm
11:50 PM 28.3°F-2.1°C 13.8°F-10.1°C 54% 10.4 mph NW16.7 kmh NW 18.4 mph29.6 kmh 30.00 in1015.9 mb - 0.00 in0.0 mm 0.00 in0.0 mm